Time;durP1;ratioP1;P1;durP2;ratioP2;P2;SDS_P1;SDS_P2;PMS_P1;PMS_P2;Temp;Humidity;BMP_temperature;BMP_pressure;BME280_temperature;BME280_humidity;BME280_pressure;Samples;Min_cycle;Max_cycle;Signal;HPM_P1;HPM_P2
2020/12/16 00:00:56;;;;;;;14.63;13.23;;;9.00;47.60;;;;;;10279419;28;20232;-71
2020/12/16 00:05:58;;;;;;;15.97;14.47;;;9.00;47.70;;;;;;10277953;28;20708;-71
2020/12/16 00:11:00;;;;;;;15.80;14.30;;;9.00;47.60;;;;;;10287104;28;20231;-71
2020/12/16 00:16:03;;;;;;;13.13;11.83;;;9.00;47.50;;;;;;10286054;28;20224;-71
2020/12/16 00:21:05;;;;;;;11.83;10.63;;;9.00;47.20;;;;;;10291321;28;20608;-72
2020/12/16 00:26:07;;;;;;;15.33;13.73;;;9.00;47.30;;;;;;10282963;28;20740;-71
2020/12/16 00:31:12;;;;;;;15.43;13.90;;;8.90;47.30;;;;;;10290409;28;20593;-71
2020/12/16 00:36:14;;;;;;;14.50;13.10;;;8.90;47.20;;;;;;10287541;28;20228;-71
2020/12/16 00:41:16;;;;;;;14.87;13.47;;;8.80;47.30;;;;;;10282438;28;20237;-71
2020/12/16 00:46:19;;;;;;;12.00;10.83;;;8.80;47.20;;;;;;10285734;28;20236;-71
2020/12/16 00:51:22;;;;;;;13.60;12.30;;;8.80;47.10;;;;;;10286661;28;20232;-71
2020/12/16 00:56:24;;;;;;;13.40;12.13;;;8.70;47.00;;;;;;10282314;28;20243;-71
2020/12/16 01:01:30;;;;;;;14.17;12.70;;;8.70;47.00;;;;;;10289561;28;20227;-71
2020/12/16 01:06:32;;;;;;;13.77;12.37;;;8.70;46.80;;;;;;10280252;28;20232;-71
2020/12/16 01:11:35;;;;;;;14.00;12.70;;;8.60;46.90;;;;;;10289214;28;20236;-71
2020/12/16 01:16:38;;;;;;;12.93;11.67;;;8.60;46.70;;;;;;10279743;28;20231;-71
2020/12/16 01:21:40;;;;;;;15.67;14.03;;;8.60;46.90;;;;;;10283130;28;20630;-71
2020/12/16 01:26:46;;;;;;;16.00;14.50;;;8.60;47.00;;;;;;10285727;28;20236;-71
2020/12/16 01:31:50;;;;;;;14.80;13.40;;;8.50;46.90;;;;;;10279591;28;20230;-71
2020/12/16 01:36:52;;;;;;;14.17;12.87;;;8.50;46.90;;;;;;10280305;28;20220;-71
2020/12/16 01:41:55;;;;;;;15.17;13.70;;;8.50;46.90;;;;;;10284342;28;20585;-71
2020/12/16 01:47:01;;;;;;;14.43;13.03;;;8.40;46.70;;;;;;10280817;28;20223;-71
2020/12/16 01:52:05;;;;;;;15.00;13.50;;;8.40;46.50;;;;;;10285763;28;20719;-72
2020/12/16 01:57:11;;;;;;;13.60;12.30;;;8.30;46.60;;;;;;10280169;28;20944;-71
2020/12/16 02:02:16;;;;;;;13.47;12.23;;;8.30;46.50;;;;;;10281151;28;20224;-71
2020/12/16 02:07:21;;;;;;;15.27;13.77;;;8.20;46.30;;;;;;10278553;28;20231;-71
2020/12/16 02:12:30;;;;;;;14.27;12.87;;;8.20;46.50;;;;;;10283884;28;20711;-71
2020/12/16 02:17:33;;;;;;;13.97;12.57;;;8.10;46.50;;;;;;10279713;28;20592;-71
2020/12/16 02:22:36;;;;;;;14.50;13.00;;;8.10;46.70;;;;;;10280778;28;20231;-71
2020/12/16 02:27:41;;;;;;;11.27;10.10;;;8.10;46.90;;;;;;10280635;28;20278;-71
2020/12/16 02:32:43;;;;;;;15.47;13.87;;;8.10;47.00;;;;;;10279345;28;20223;-71
2020/12/16 02:37:46;;;;;;;16.37;14.67;;;8.10;47.20;;;;;;10286450;28;20235;-71
2020/12/16 02:42:49;;;;;;;16.20;14.50;;;8.10;47.40;;;;;;10273822;28;20238;-73
2020/12/16 02:47:52;;;;;;;15.73;13.93;;;8.10;47.30;;;;;;10284646;28;20220;-73
2020/12/16 02:52:55;;;;;;;16.93;15.13;;;8.10;47.30;;;;;;10280755;28;20231;-73
2020/12/16 02:57:58;;;;;;;15.47;12.50;;;8.10;47.50;;;;;;10279866;28;20220;-73
2020/12/16 03:03:00;;;;;;;16.53;14.67;;;8.10;47.60;;;;;;10285872;28;20596;-74
2020/12/16 03:08:03;;;;;;;17.47;15.67;;;8.10;47.60;;;;;;10279948;28;20226;-73
2020/12/16 03:13:07;;;;;;;16.37;14.67;;;8.10;47.50;;;;;;10280172;28;20232;-73
2020/12/16 03:18:09;;;;;;;17.03;15.23;;;8.10;47.60;;;;;;10285507;28;20235;-73
2020/12/16 03:23:11;;;;;;;15.70;14.13;;;8.20;47.60;;;;;;10280624;28;20319;-73
2020/12/16 03:28:14;;;;;;;16.00;14.23;;;8.10;47.60;;;;;;10282825;28;20231;-73
2020/12/16 03:33:17;;;;;;;15.90;13.37;;;8.20;47.80;;;;;;10281480;28;20223;-73
2020/12/16 03:38:19;;;;;;;19.00;16.27;;;8.20;47.80;;;;;;10281000;28;20788;-73
2020/12/16 03:43:22;;;;;;;18.57;16.37;;;8.20;47.90;;;;;;10280604;28;20241;-73
2020/12/16 03:48:24;;;;;;;18.80;16.77;;;8.30;48.00;;;;;;10285307;28;20238;-73
2020/12/16 03:53:26;;;;;;;18.63;16.67;;;8.30;48.00;;;;;;10289875;28;20232;-73
2020/12/16 03:58:29;;;;;;;17.90;15.97;;;8.30;47.90;;;;;;10284559;28;20707;-73
2020/12/16 04:03:32;;;;;;;19.13;17.03;;;8.30;47.90;;;;;;10286535;28;20230;-73
2020/12/16 04:08:34;;;;;;;22.80;17.80;;;8.30;47.80;;;;;;10283860;28;20362;-73
2020/12/16 04:13:38;;;;;;;20.33;15.53;;;8.30;47.80;;;;;;10289003;28;20228;-73
2020/12/16 04:18:40;;;;;;;19.10;17.03;;;8.30;47.90;;;;;;10288777;28;20223;-73
2020/12/16 04:23:42;;;;;;;20.93;16.80;;;8.30;47.80;;;;;;10288282;28;20223;-73
2020/12/16 04:28:45;;;;;;;21.77;17.63;;;8.30;47.90;;;;;;10289096;28;20223;-74
2020/12/16 04:33:47;;;;;;;19.93;16.40;;;8.30;48.10;;;;;;10282679;28;20231;-73
2020/12/16 04:38:49;;;;;;;22.00;17.17;;;8.30;48.00;;;;;;10286482;28;20232;-73
2020/12/16 04:43:55;;;;;;;18.93;16.03;;;8.30;48.00;;;;;;10282842;28;20228;-73
2020/12/16 04:48:57;;;;;;;19.37;15.83;;;8.30;48.20;;;;;;10278705;28;20234;-73
2020/12/16 04:54:00;;;;;;;19.27;15.90;;;8.30;48.20;;;;;;10283791;28;20224;-73
2020/12/16 04:59:04;;;;;;;18.90;15.80;;;8.30;48.20;;;;;;10283491;28;20596;-73
2020/12/16 05:04:08;;;;;;;18.20;15.67;;;8.40;48.20;;;;;;10290681;28;20255;-73
2020/12/16 05:09:12;;;;;;;16.97;14.77;;;8.40;48.10;;;;;;10287318;28;20634;-73
2020/12/16 05:14:17;;;;;;;16.93;14.67;;;8.40;49.00;;;;;;10285975;28;20236;-73
2020/12/16 05:19:32;;;;;;;16.80;15.00;;;8.40;48.30;;;;;;10280912;28;20232;-73
2020/12/16 05:24:36;;;;;;;16.30;14.53;;;8.40;48.20;;;;;;10282981;28;20227;-74
2020/12/16 05:29:39;;;;;;;16.33;13.60;;;8.40;48.00;;;;;;10279790;28;20250;-73
2020/12/16 05:34:41;;;;;;;18.10;15.40;;;8.50;48.10;;;;;;10274679;28;20783;-73
2020/12/16 05:39:54;;;;;;;17.73;15.67;;;8.50;48.10;;;;;;10271667;28;20228;-73
2020/12/16 05:44:59;;;;;;;17.67;14.57;;;8.50;48.20;;;;;;10278510;28;20220;-73
2020/12/16 05:50:01;;;;;;;17.03;15.23;;;8.50;48.20;;;;;;10271486;28;20237;-73
2020/12/16 05:55:04;;;;;;;16.27;14.13;;;8.50;48.10;;;;;;10275663;28;20236;-73
2020/12/16 06:00:09;;;;;;;20.40;16.90;;;8.60;48.10;;;;;;10273604;28;20603;-73
2020/12/16 06:05:13;;;;;;;20.57;16.37;;;8.60;48.10;;;;;;10273669;28;20430;-73
2020/12/16 06:10:16;;;;;;;19.67;17.37;;;8.60;48.10;;;;;;10272480;28;20232;-73
2020/12/16 06:15:19;;;;;;;18.37;15.07;;;8.60;48.10;;;;;;10270411;28;20238;-73
2020/12/16 06:20:21;;;;;;;17.43;15.57;;;8.60;48.10;;;;;;10276453;28;20246;-73
2020/12/16 06:25:24;;;;;;;17.27;14.93;;;8.60;48.10;;;;;;10277848;28;20223;-74
2020/12/16 06:30:29;;;;;;;17.93;15.63;;;8.60;48.10;;;;;;10275388;28;20783;-74
2020/12/16 06:35:32;;;;;;;18.90;16.47;;;8.60;48.10;;;;;;10271307;28;20698;-73
2020/12/16 06:40:45;;;;;;;17.90;15.83;;;8.60;48.10;;;;;;10272771;28;20233;-73
2020/12/16 06:45:50;;;;;;;17.53;15.33;;;8.60;48.10;;;;;;10264910;28;20246;-73
2020/12/16 06:51:14;;;;;;;15.73;14.07;;;8.70;48.10;;;;;;10269923;28;20239;-73
2020/12/16 06:56:19;;;;;;;17.67;15.40;;;8.70;48.10;;;;;;10280936;28;20233;-73
2020/12/16 07:01:23;;;;;;;15.97;13.53;;;8.70;48.00;;;;;;10273627;28;20245;-73
2020/12/16 07:06:39;;;;;;;17.87;15.93;;;8.70;48.00;;;;;;10277400;28;20229;-73
2020/12/16 07:11:41;;;;;;;18.30;14.57;;;8.60;47.90;;;;;;10277657;28;20235;-73
2020/12/16 07:16:46;;;;;;;18.50;15.73;;;8.60;47.80;;;;;;10272988;28;20258;-73
2020/12/16 07:21:48;;;;;;;16.77;15.07;;;8.60;47.70;;;;;;10273380;28;20255;-72
2020/12/16 07:26:53;;;;;;;17.33;15.50;;;8.60;47.70;;;;;;10281673;28;20230;-73
2020/12/16 07:32:04;;;;;;;16.23;14.50;;;8.60;47.60;;;;;;10279542;28;20782;-72
2020/12/16 07:37:07;;;;;;;16.67;14.83;;;8.60;47.80;;;;;;10284376;28;20223;-73
2020/12/16 07:42:09;;;;;;;19.17;15.07;;;8.60;47.90;;;;;;10278113;28;20262;-72
2020/12/16 07:47:12;;;;;;;15.33;13.73;;;8.60;48.00;;;;;;10290377;28;20703;-72
2020/12/16 07:52:15;;;;;;;14.37;12.80;;;8.60;47.90;;;;;;10277471;28;20223;-72
2020/12/16 07:57:17;;;;;;;16.37;14.57;;;8.60;47.90;;;;;;10286256;28;20256;-72
2020/12/16 08:02:21;;;;;;;15.30;13.70;;;8.50;47.60;;;;;;10280479;28;20298;-72
2020/12/16 08:07:23;;;;;;;16.73;15.00;;;8.50;47.60;;;;;;10282338;28;20747;-72
2020/12/16 08:12:26;;;;;;;16.27;14.60;;;8.50;47.60;;;;;;10278941;28;20257;-72
2020/12/16 08:17:29;;;;;;;16.23;14.30;;;8.50;47.60;;;;;;10282026;28;20232;-72
2020/12/16 08:22:32;;;;;;;15.60;13.97;;;8.50;47.90;;;;;;10277017;28;20319;-72
2020/12/16 08:27:34;;;;;;;16.33;13.47;;;8.50;47.90;;;;;;10277994;28;20512;-72
2020/12/16 08:32:44;;;;;;;14.47;12.97;;;8.50;48.00;;;;;;10282788;28;20223;-73
2020/12/16 08:37:50;;;;;;;17.27;14.43;;;8.50;48.00;;;;;;10276687;28;20591;-72
2020/12/16 08:42:52;;;;;;;14.60;12.77;;;8.50;48.10;;;;;;10269615;28;20224;-75
2020/12/16 08:48:02;;;;;;;18.70;16.07;;;8.50;49.50;;;;;;10285312;28;20228;-75
2020/12/16 08:53:12;;;;;;;17.27;14.73;;;8.60;49.10;;;;;;10274456;28;20240;-74
2020/12/16 08:58:15;;;;;;;14.87;13.33;;;8.70;48.60;;;;;;10276913;28;20611;-74
2020/12/16 09:03:18;;;;;;;15.40;13.80;;;8.80;48.40;;;;;;10274186;28;20220;-73
2020/12/16 09:08:21;;;;;;;17.10;15.33;;;8.80;48.40;;;;;;10280096;28;20240;-73
2020/12/16 09:13:23;;;;;;;16.50;14.80;;;8.80;48.40;;;;;;10272953;28;20257;-73
2020/12/16 09:18:32;;;;;;;16.53;14.23;;;8.90;48.30;;;;;;10271854;28;20608;-73
2020/12/16 09:23:34;;;;;;;17.27;14.73;;;8.90;48.10;;;;;;10276448;28;20516;-74
2020/12/16 09:28:38;;;;;;;17.07;15.27;;;9.00;48.20;;;;;;10275563;28;20231;-74
2020/12/16 09:33:41;;;;;;;14.50;12.97;;;9.00;48.20;;;;;;10268655;28;20646;-75
2020/12/16 09:38:44;;;;;;;14.67;13.13;;;9.00;48.10;;;;;;10285447;28;20236;-74
2020/12/16 09:43:46;;;;;;;16.50;14.73;;;9.10;48.20;;;;;;10271739;28;20227;-73
2020/12/16 09:48:51;;;;;;;18.17;16.27;;;9.10;48.10;;;;;;10276857;28;20287;-73
2020/12/16 09:53:55;;;;;;;17.03;15.30;;;9.10;47.90;;;;;;10281412;28;20236;-73
2020/12/16 09:58:57;;;;;;;19.53;16.53;;;9.20;47.90;;;;;;10278981;28;20696;-74
2020/12/16 10:04:00;;;;;;;19.13;16.93;;;9.20;47.60;;;;;;10279102;28;20235;-74
2020/12/16 10:09:02;;;;;;;18.37;16.40;;;9.20;47.40;;;;;;10275967;28;20315;-73
2020/12/16 10:14:05;;;;;;;19.60;16.97;;;9.10;47.50;;;;;;10284104;28;20282;-73
2020/12/16 10:19:08;;;;;;;17.23;15.23;;;9.10;47.50;;;;;;10277102;28;20242;-73
2020/12/16 10:24:10;;;;;;;17.70;15.53;;;9.10;47.70;;;;;;10277887;28;20238;-73
2020/12/16 10:29:12;;;;;;;18.53;16.50;;;9.20;47.80;;;;;;10281908;28;20238;-74
2020/12/16 10:34:15;;;;;;;17.90;15.87;;;9.10;47.70;;;;;;10282085;28;20238;-73
2020/12/16 10:39:18;;;;;;;17.67;15.77;;;9.20;47.70;;;;;;10279748;28;20228;-70
2020/12/16 10:44:22;;;;;;;17.67;15.80;;;9.20;47.70;;;;;;10275435;28;20721;-70
2020/12/16 10:49:26;;;;;;;18.70;16.10;;;9.20;47.70;;;;;;10277188;28;20242;-71
2020/12/16 10:54:29;;;;;;;19.57;16.17;;;9.20;47.70;;;;;;10281926;28;20239;-70
2020/12/16 10:59:32;;;;;;;18.63;16.17;;;9.20;47.70;;;;;;10281617;28;20628;-70
2020/12/16 11:04:45;;;;;;;23.83;18.33;;;9.20;47.70;;;;;;10274374;28;20282;-67
2020/12/16 11:09:47;;;;;;;18.17;16.27;;;9.30;47.90;;;;;;10278897;28;20222;-71
2020/12/16 11:14:51;;;;;;;19.07;16.87;;;9.30;48.20;;;;;;10270256;28;20227;-71
2020/12/16 11:19:53;;;;;;;18.13;16.17;;;9.30;47.90;;;;;;10278121;28;20229;-71
2020/12/16 11:24:56;;;;;;;19.77;16.87;;;9.40;47.90;;;;;;10275058;28;20237;-72
2020/12/16 11:29:59;;;;;;;19.00;16.80;;;9.30;47.70;;;;;;10268601;28;20330;-74
2020/12/16 11:35:01;;;;;;;21.27;18.23;;;9.40;47.70;;;;;;10282378;28;20247;-74
2020/12/16 11:40:04;;;;;;;19.20;16.73;;;9.40;47.70;;;;;;10285854;28;20231;-74
2020/12/16 11:45:07;;;;;;;18.93;16.93;;;9.40;47.70;;;;;;10283630;28;20231;-72
2020/12/16 11:50:11;;;;;;;21.77;18.30;;;9.50;47.80;;;;;;10277812;28;20235;-76
2020/12/16 11:55:13;;;;;;;19.60;17.50;;;9.50;47.70;;;;;;10351208;23;20218;-74
2020/12/16 12:00:16;;;;;;;19.53;17.43;;;9.50;47.60;;;;;;10350106;28;20326;-74
2020/12/16 12:05:18;;;;;;;20.57;17.07;;;9.60;47.60;;;;;;10360514;23;20234;-73
2020/12/16 12:10:21;;;;;;;20.03;17.57;;;9.60;47.70;;;;;;10443357;28;21339;-72
2020/12/16 12:15:24;;;;;;;20.77;18.07;;;9.60;47.50;;;;;;10450247;28;20231;-72
2020/12/16 12:20:27;;;;;;;19.27;16.80;;;9.60;47.50;;;;;;10454719;28;20235;-72
2020/12/16 12:25:29;;;;;;;20.13;17.97;;;9.60;47.50;;;;;;10443598;28;20233;-72
2020/12/16 12:30:33;;;;;;;20.80;17.60;;;9.70;47.80;;;;;;10446477;28;20748;-72
2020/12/16 12:35:35;;;;;;;19.50;17.20;;;9.70;47.90;;;;;;10442713;28;20239;-72
2020/12/16 12:40:37;;;;;;;20.57;18.37;;;9.80;47.90;;;;;;10432569;28;20218;-75
2020/12/16 12:45:40;;;;;;;17.63;15.73;;;9.90;47.70;;;;;;10440798;28;20240;-74
2020/12/16 12:50:42;;;;;;;18.73;16.73;;;10.00;46.80;;;;;;10444119;28;20231;-73
2020/12/16 12:55:44;;;;;;;18.07;16.27;;;10.10;47.80;;;;;;10441095;28;20223;-72
2020/12/16 13:00:48;;;;;;;18.03;16.23;;;10.10;47.40;;;;;;10442685;28;20236;-73
2020/12/16 13:05:51;;;;;;;18.80;16.80;;;10.20;46.30;;;;;;10431222;28;20231;-73
2020/12/16 13:10:53;;;;;;;19.40;17.40;;;10.20;46.90;;;;;;10426788;28;20225;-73
2020/12/16 13:15:56;;;;;;;17.87;16.10;;;10.20;46.60;;;;;;10434572;28;20228;-72
2020/12/16 13:20:59;;;;;;;17.70;15.90;;;10.30;46.40;;;;;;10434409;28;20697;-72
2020/12/16 13:26:03;;;;;;;20.30;18.20;;;10.30;46.30;;;;;;10434554;28;20312;-72
2020/12/16 13:31:06;;;;;;;20.00;17.90;;;10.30;46.30;;;;;;10436597;28;20225;-72
2020/12/16 13:36:08;;;;;;;16.50;14.87;;;10.30;46.10;;;;;;10437604;28;20258;-72
2020/12/16 13:41:10;;;;;;;16.87;15.27;;;10.40;46.20;;;;;;10430903;28;20222;-72
2020/12/16 13:46:14;;;;;;;16.43;14.83;;;10.40;46.20;;;;;;10432067;28;20230;-72
2020/12/16 13:51:21;;;;;;;17.60;15.80;;;10.40;46.20;;;;;;10428319;28;20217;-73
2020/12/16 13:56:27;;;;;;;16.57;15.07;;;10.40;45.70;;;;;;10446943;28;20779;-73
2020/12/16 14:01:31;;;;;;;18.03;16.23;;;10.40;45.90;;;;;;10430971;28;20229;-72
2020/12/16 14:06:33;;;;;;;17.13;15.43;;;10.30;45.70;;;;;;10436185;28;20229;-72
2020/12/16 14:11:35;;;;;;;19.23;17.30;;;10.20;45.90;;;;;;10435300;28;20221;-74
2020/12/16 14:16:39;;;;;;;18.63;16.73;;;10.20;45.80;;;;;;10437084;28;20227;-74
2020/12/16 14:21:41;;;;;;;19.77;17.87;;;10.10;45.70;;;;;;10444139;28;20227;-73
2020/12/16 14:26:43;;;;;;;21.00;18.77;;;10.10;46.00;;;;;;10437073;28;20263;-73
2020/12/16 14:31:49;;;;;;;20.97;18.77;;;10.00;45.80;;;;;;10427089;28;20226;-73
2020/12/16 14:36:53;;;;;;;18.37;16.50;;;10.00;45.50;;;;;;10446462;28;20251;-73
2020/12/16 14:41:57;;;;;;;18.20;16.30;;;9.90;46.60;;;;;;10438001;28;20308;-75
2020/12/16 14:47:00;;;;;;;16.70;15.03;;;9.80;46.50;;;;;;10428764;28;20225;-74
2020/12/16 14:52:03;;;;;;;17.20;14.10;;;9.80;46.30;;;;;;10435128;28;20608;-73
2020/12/16 14:57:05;;;;;;;15.33;13.37;;;9.70;46.30;;;;;;10431594;28;20696;-73
2020/12/16 15:02:09;;;;;;;15.40;13.53;;;9.70;46.60;;;;;;10432839;28;20225;-73
2020/12/16 15:07:11;;;;;;;15.30;13.70;;;9.60;46.20;;;;;;10434818;28;20225;-73
2020/12/16 15:12:13;;;;;;;16.00;14.40;;;9.50;46.40;;;;;;10436862;28;20224;-73
2020/12/16 15:17:17;;;;;;;14.90;13.37;;;9.50;46.40;;;;;;10428972;28;20228;-73
2020/12/16 15:22:19;;;;;;;16.03;14.40;;;9.40;46.30;;;;;;10432581;28;21241;-73
2020/12/16 15:27:21;;;;;;;18.90;16.90;;;9.40;46.30;;;;;;10427077;28;20233;-73
2020/12/16 15:32:24;;;;;;;16.03;14.33;;;9.40;46.30;;;;;;10425873;28;20221;-73
2020/12/16 15:37:26;;;;;;;15.80;14.17;;;9.40;46.30;;;;;;10431044;28;20600;-73
2020/12/16 15:42:33;;;;;;;16.23;14.43;;;9.40;46.30;;;;;;10438663;28;20316;-73
2020/12/16 15:47:37;;;;;;;16.83;15.23;;;9.40;45.60;;;;;;10441518;28;20229;-72
2020/12/16 15:52:39;;;;;;;21.77;19.60;;;9.40;45.80;;;;;;10441215;28;20236;-72
2020/12/16 15:57:41;;;;;;;36.20;31.93;;;9.40;45.80;;;;;;10443211;28;20227;-72
2020/12/16 16:02:44;;;;;;;24.30;21.20;;;9.40;45.90;;;;;;10439832;28;20228;-72
2020/12/16 16:07:47;;;;;;;17.03;15.23;;;9.30;45.60;;;;;;10448045;28;20623;-72
2020/12/16 16:12:49;;;;;;;18.80;16.47;;;9.30;45.90;;;;;;10444034;28;20639;-72
2020/12/16 16:17:52;;;;;;;15.53;13.70;;;9.30;45.40;;;;;;10427217;28;20225;-73
2020/12/16 16:22:54;;;;;;;19.93;13.60;;;9.30;48.80;;;;;;10451809;28;20222;-73
2020/12/16 16:27:57;;;;;;;16.67;14.90;;;9.40;49.80;;;;;;10433315;28;20225;-74
2020/12/16 16:33:01;;;;;;;16.60;14.63;;;9.60;48.20;;;;;;10429511;28;20222;-74
2020/12/16 16:38:04;;;;;;;18.20;16.23;;;9.80;46.90;;;;;;10419454;28;20304;-74
2020/12/16 16:43:06;;;;;;;18.93;16.03;;;9.80;46.30;;;;;;10420790;28;20226;-74
2020/12/16 16:48:09;;;;;;;17.30;15.53;;;9.80;45.90;;;;;;10440523;28;20677;-74
2020/12/16 16:53:11;;;;;;;17.87;15.97;;;9.70;45.30;;;;;;10429381;28;20235;-74
2020/12/16 16:58:13;;;;;;;17.60;15.73;;;9.60;45.20;;;;;;10432091;28;20316;-73
2020/12/16 17:03:16;;;;;;;28.83;24.97;;;9.40;45.30;;;;;;10438910;28;20304;-73
2020/12/16 17:08:19;;;;;;;27.27;22.83;;;9.30;45.40;;;;;;10435539;28;20704;-73
2020/12/16 17:13:21;;;;;;;26.50;23.30;;;9.30;45.90;;;;;;10451073;28;20303;-73
2020/12/16 17:18:24;;;;;;;23.70;19.33;;;9.20;46.00;;;;;;10435078;28;20229;-76
2020/12/16 17:23:27;;;;;;;20.20;18.00;;;9.20;46.10;;;;;;10434887;28;20232;-75
2020/12/16 17:28:30;;;;;;;19.60;17.50;;;9.10;46.10;;;;;;10421772;28;20230;-75
2020/12/16 17:33:34;;;;;;;20.30;17.87;;;9.10;46.10;;;;;;10444840;28;20265;-75
2020/12/16 17:38:36;;;;;;;19.23;16.70;;;9.00;46.00;;;;;;10444241;28;20259;-75
2020/12/16 17:43:39;;;;;;;21.87;17.90;;;8.90;46.00;;;;;;10446509;28;20217;-75
2020/12/16 17:48:42;;;;;;;19.77;17.27;;;8.80;46.20;;;;;;10425563;28;20225;-72
2020/12/16 17:53:44;;;;;;;22.00;17.30;;;8.70;46.60;;;;;;10433368;28;20221;-77
2020/12/16 17:58:46;;;;;;;19.33;17.13;;;8.70;46.90;;;;;;10441617;28;20689;-76
2020/12/16 18:03:49;;;;;;;22.27;18.50;;;8.60;46.90;;;;;;10445867;28;20221;-77
2020/12/16 18:08:52;;;;;;;19.17;17.07;;;8.60;46.90;;;;;;10429519;23;20245;-78
2020/12/16 18:13:55;;;;;;;17.43;15.53;;;8.60;47.20;;;;;;10412824;28;20610;-80
2020/12/16 18:18:59;;;;;;;18.57;16.23;;;8.60;47.30;;;;;;10418204;28;20233;-80
2020/12/16 18:24:01;;;;;;;18.87;16.33;;;8.60;47.40;;;;;;10394229;28;20270;-80
2020/12/16 18:29:04;;;;;;;18.27;15.83;;;8.70;47.50;;;;;;10421216;28;20218;-80
2020/12/16 18:34:08;;;;;;;18.67;16.13;;;8.80;47.40;;;;;;10406743;28;20230;-80
2020/12/16 18:39:11;;;;;;;28.33;24.93;;;8.80;47.20;;;;;;10411676;28;20252;-80
2020/12/16 18:44:13;;;;;;;19.27;16.73;;;8.80;46.90;;;;;;10409160;28;20743;-80
2020/12/16 18:49:17;;;;;;;19.37;16.37;;;8.70;46.70;;;;;;10405314;28;20232;-79
2020/12/16 18:54:19;;;;;;;29.10;22.47;;;8.70;47.60;;;;;;10407112;28;20218;-79
2020/12/16 18:59:22;;;;;;;33.67;28.03;;;8.60;46.90;;;;;;10398160;28;20262;-78
2020/12/16 19:04:25;;;;;;;25.30;19.50;;;8.60;47.10;;;;;;10398604;28;20225;-78
2020/12/16 19:09:27;;;;;;;23.27;19.73;;;8.50;47.00;;;;;;10383759;28;20254;-78
2020/12/16 19:14:29;;;;;;;22.70;19.50;;;8.50;47.40;;;;;;10395332;28;20281;-78
2020/12/16 19:19:32;;;;;;;24.17;19.97;;;8.50;47.40;;;;;;10385803;28;20230;-78
2020/12/16 19:24:35;;;;;;;22.63;18.93;;;8.50;47.40;;;;;;10375494;28;20305;-78
2020/12/16 19:29:37;;;;;;;21.77;18.77;;;8.50;47.30;;;;;;10393111;28;20226;-77
2020/12/16 19:34:41;;;;;;;20.77;17.63;;;8.60;47.40;;;;;;10387512;28;20287;-78
2020/12/16 19:39:43;;;;;;;19.17;16.83;;;8.60;47.40;;;;;;10403236;28;20240;-78
2020/12/16 19:44:45;;;;;;;16.93;15.13;;;8.60;47.40;;;;;;10377017;28;20238;-78
2020/12/16 19:49:48;;;;;;;18.60;16.60;;;8.60;47.30;;;;;;10399921;28;20228;-78
2020/12/16 19:54:50;;;;;;;17.73;15.83;;;8.70;47.30;;;;;;10408753;28;20224;-77
2020/12/16 19:59:53;;;;;;;15.70;14.07;;;8.70;47.10;;;;;;10392521;28;20250;-77
2020/12/16 20:04:57;;;;;;;15.53;13.83;;;8.60;46.90;;;;;;10408547;28;20224;-77
2020/12/16 20:10:03;;;;;;;16.40;14.27;;;8.60;46.80;;;;;;10391653;28;20229;-77
2020/12/16 20:15:08;;;;;;;16.93;14.67;;;8.50;46.80;;;;;;10389931;28;20218;-80
2020/12/16 20:20:12;;;;;;;15.97;14.27;;;8.50;46.90;;;;;;10398155;28;20249;-78
2020/12/16 20:25:14;;;;;;;15.10;13.40;;;8.40;46.70;;;;;;10405324;28;20280;-78
2020/12/16 20:30:17;;;;;;;15.60;13.80;;;8.40;46.90;;;;;;10399935;28;20245;-78
2020/12/16 20:35:20;;;;;;;13.87;12.50;;;8.30;46.80;;;;;;10413317;28;20316;-78
2020/12/16 20:40:22;;;;;;;15.07;13.47;;;8.30;46.90;;;;;;10411169;28;20317;-78
2020/12/16 20:45:24;;;;;;;14.93;13.33;;;8.20;46.90;;;;;;10410934;28;20222;-78
2020/12/16 20:50:28;;;;;;;14.50;13.10;;;8.10;47.00;;;;;;10410140;28;20785;-78
2020/12/16 20:55:30;;;;;;;14.33;12.83;;;8.10;47.20;;;;;;10407831;28;20234;-78
2020/12/16 21:00:32;;;;;;;15.10;13.10;;;8.00;47.20;;;;;;10417977;28;20255;-78
2020/12/16 21:05:35;;;;;;;14.87;13.40;;;8.00;47.40;;;;;;10411653;28;20250;-78
2020/12/16 21:10:38;;;;;;;16.23;14.53;;;8.00;47.30;;;;;;10403856;28;20261;-79
2020/12/16 21:15:40;;;;;;;17.07;14.53;;;8.00;47.50;;;;;;10407738;28;20338;-78
2020/12/16 21:20:43;;;;;;;16.80;14.60;;;8.10;47.50;;;;;;10415052;28;20320;-78
2020/12/16 21:25:46;;;;;;;14.90;13.33;;;8.10;47.40;;;;;;10407203;28;20264;-80
2020/12/16 21:30:48;;;;;;;15.40;13.67;;;8.10;47.20;;;;;;10409188;28;20697;-79
2020/12/16 21:35:51;;;;;;;14.40;12.90;;;8.10;47.10;;;;;;10413334;28;20225;-79
2020/12/16 21:40:54;;;;;;;15.20;13.60;;;8.10;47.10;;;;;;10408691;28;20611;-79
2020/12/16 21:45:56;;;;;;;14.87;13.37;;;8.00;47.00;;;;;;10409800;28;20317;-79
2020/12/16 21:50:59;;;;;;;14.37;12.87;;;8.00;47.30;;;;;;10403882;28;20302;-80
2020/12/16 21:56:01;;;;;;;15.17;13.47;;;8.00;47.20;;;;;;10410728;28;20249;-79
2020/12/16 22:01:04;;;;;;;13.83;12.13;;;8.00;47.30;;;;;;10395659;28;20257;-79
2020/12/16 22:06:08;;;;;;;17.43;14.50;;;8.00;47.20;;;;;;10404153;28;20312;-80
2020/12/16 22:11:11;;;;;;;18.10;14.83;;;8.00;47.30;;;;;;10409540;28;20246;-79
2020/12/16 22:16:16;;;;;;;15.13;13.47;;;7.90;47.20;;;;;;10411817;28;20234;-79
2020/12/16 22:21:19;;;;;;;16.20;14.50;;;7.90;47.20;;;;;;10390713;28;20288;-79
2020/12/16 22:26:21;;;;;;;17.03;14.70;;;7.80;47.20;;;;;;10403738;28;20309;-79
2020/12/16 22:31:23;;;;;;;18.03;15.10;;;7.80;47.30;;;;;;10396005;28;20261;-78
2020/12/16 22:36:27;;;;;;;19.17;15.47;;;7.90;47.40;;;;;;10408292;28;20300;-78
2020/12/16 22:41:29;;;;;;;17.97;15.03;;;7.80;47.50;;;;;;10405288;28;20222;-79
2020/12/16 22:46:31;;;;;;;18.07;14.97;;;7.80;47.50;;;;;;10405610;28;20218;-79
2020/12/16 22:51:36;;;;;;;19.67;16.00;;;7.90;47.60;;;;;;10406508;28;20638;-79
2020/12/16 22:56:39;;;;;;;17.03;15.07;;;7.90;47.50;;;;;;10408137;28;20245;-79
2020/12/16 23:01:42;;;;;;;16.83;14.37;;;7.90;47.40;;;;;;10404123;28;20245;-79
2020/12/16 23:06:45;;;;;;;18.00;14.57;;;7.90;47.40;;;;;;10384604;28;20235;-79
2020/12/16 23:11:47;;;;;;;18.43;15.87;;;7.90;47.40;;;;;;10399744;28;20227;-79
2020/12/16 23:16:49;;;;;;;19.40;15.60;;;8.00;47.40;;;;;;10395828;28;20312;-78
2020/12/16 23:21:53;;;;;;;19.73;16.47;;;8.00;47.20;;;;;;10402890;28;20229;-79
2020/12/16 23:26:55;;;;;;;19.27;15.77;;;8.00;47.30;;;;;;10396981;28;20312;-79
2020/12/16 23:31:58;;;;;;;19.60;15.43;;;8.00;47.20;;;;;;10406172;28;20312;-79
2020/12/16 23:37:01;;;;;;;20.53;16.47;;;7.90;47.10;;;;;;10409217;28;20249;-79
2020/12/16 23:42:06;;;;;;;18.90;15.13;;;7.80;47.20;;;;;;10397023;28;20326;-79
2020/12/16 23:47:08;;;;;;;18.17;15.23;;;7.80;47.20;;;;;;10413053;28;20309;-80
2020/12/16 23:52:12;;;;;;;17.03;14.97;;;7.80;47.30;;;;;;10392482;28;20233;-79
2020/12/16 23:57:15;;;;;;;15.47;13.83;;;7.70;47.40;;;;;;10390968;28;20230;-79
